메인 페이지
METAR-TAF:

METAR-TAF

공항 :

벤츠필스, 라트비아

위도: 57-21-28N, 경도: 021-32-39E, 고도: 6m

현재 날씨관측

예보는 46분 전, 12:20시(UTC)에 발표되었습니다.
7kt
온도 22°C
습도 73%
기압 1012 hPa
시정 10km 이상
1500m 미만 상공 구름 및 적란운 없음

METAR: EVVA 241220Z AUTO 28007KT CAVOK 22/17 Q1012

시각: 16:06 (13:06 UTC)

예보

예보는 1 시간 59분 전, 11:07시(UTC)에 발표되었습니다.
예보 대상 시간: 24일 12시부터 24일 21시까지 (UTC)
5kt
시정 10km 이상
고도 3000ft 상공 구름 조금
일시적
24일 12시부터 24일 15시까지 (UTC)
고도 3000ft 상공 구름 보통, 적란운.

TAF: EVVA 241107Z 2412/2421 26005KT 9999 FEW030 TEMPO 2412/2415 SCT030CB

4,000개 이상의 공항 관측 자료 및 예보 (METAR 및 TAF 보고).

지도상에서 검색 가능한 기상관측소가 노란 점과 빨간 점으로 표시되어 있습니다.

기상관측소 명을 보려면 표시 위로 마우스를 이동하세요.

날씨 관측과 예보를 보려면 클릭하세요.

지도 변경 : 확대하려면 엑스 표시가 있는 녹색 버튼, 축소하려면 빼기 표시가 있는 녹색 버튼, 다음 페이지의 지도를 보려면 녹색 화살표를 클릭하세요.


METAR-TAF: